Bookmark and Share
Track history (hours):
 

Tour Pomerol

Last reported at 2014-Apr-24 08:33 UTC. Time now 2014-Apr-24 09:12 UTC.
Position N 51°57' E 004°08'.

Length 120 m; draft 6.8 m.

Type: Tanker. MMSI: 563384980.

NotesDate/timePositionNaut miles runAvg speedWind from/ knotsBaromVisibWave heightAir tempDewpointWater temp
2014-Apr-24 08:33N 51°57' E 004°08'1 0.7
2014-Apr-24 07:33N 51°58' E 004°07'1010.4
2014-Apr-24 06:33N 52°00' E 003°51'10 9.7
2014-Apr-24 05:33N 52°05' E 003°37'1110.8
2014-Apr-24 04:33N 52°10' E 003°22'1111.3
2014-Apr-24 03:33N 52°16' E 003°06'14 9.8
2014-Apr-24 02:10N 52°27' E 002°53'2212.2
2014-Apr-24 00:24N 52°47' E 003°08'1011.3
2014-Apr-23 23:33N 52°55' E 003°15'1110.7
2014-Apr-23 22:33N 53°06' E 003°10'7310.0
2014-Apr-23 15:15N 54°02' E 004°29'811.3
2014-Apr-23 14:33N 54°03' E 004°42'1111.0
2014-Apr-23 13:33N 54°05' E 005°01'1211.0
2014-Apr-23 12:29N 54°06' E 005°21'1011.0
2014-Apr-23 11:33N 54°08' E 005°38'1111.4
2014-Apr-23 10:33N 54°09' E 005°57'1212.1
2014-Apr-23 09:33N 54°11' E 006°18'1212.4
2014-Apr-23 08:33N 54°11' E 006°39'1313.2
2014-Apr-23 07:33N 54°12' E 007°02'1313.2
2014-Apr-23 06:33N 54°12' E 007°24'1212.4
2014-Apr-23 05:33N 54°08' E 007°44'1212.1
2014-Apr-23 04:33N 54°03' E 008°03'1211.5
2014-Apr-23 03:33N 53°60' E 008°21'1211.9
2014-Apr-23 02:33N 53°56' E 008°40'1212.3
2014-Apr-23 01:33N 53°51' E 008°60'1312.7
2014-Apr-23 00:34N 53°50' E 009°21'1414.3
2014-Apr-22 23:33N 53°37' E 009°33'1312.6
2014-Apr-22 22:33N 53°33' E 009°53'3 2.6
2014-Apr-22 21:33N 53°31' E 009°56'0 0.0
2014-Apr-22 20:32N 53°31' E 009°56'0 0.0
2014-Apr-22 19:23N 53°31' E 009°56'0 0.0
2014-Apr-22 18:32N 53°31' E 009°56'0 0.0
2014-Apr-22 17:29N 53°31' E 009°56'0 0.0
2014-Apr-22 16:20N 53°31' E 009°56'0 0.0
2014-Apr-22 15:29N 53°31' E 009°56'0 0.0
2014-Apr-22 14:29N 53°31' E 009°56'0 0.0
2014-Apr-22 13:32N 53°31' E 009°56'0 0.0
2014-Apr-22 12:32N 53°31' E 009°56'0 0.0
2014-Apr-22 11:23N 53°31' E 009°56'0 0.0
2014-Apr-22 10:29N 53°31' E 009°56'0 0.0
2014-Apr-22 09:32N 53°31' E 009°56'0 0.0
2014-Apr-22 08:29N 53°31' E 009°56'0 0.0
2014-Apr-22 07:32N 53°31' E 009°56'0 0.0
2014-Apr-22 06:32N 53°31' E 009°56'1 0.7
2014-Apr-22 05:33N 53°32' E 009°56'1211.5
2014-Apr-22 04:34N 53°35' E 009°37'1414.0
2014-Apr-22 03:33N 53°46' E 009°24'1212.1
2014-Apr-22 02:33N 53°53' E 009°06'1110.5
2014-Apr-22 01:33N 53°50' E 008°49'1110.6
2014-Apr-22 00:34N 53°58' E 008°36'1414.3
2014-Apr-21 23:33N 53°60' E 008°12'3 3.1
2014-Apr-21 22:32N 54°02' E 008°08'0 0.0
2014-Apr-21 21:29N 54°02' E 008°08'0 0.0
2014-Apr-21 20:32N 54°02' E 008°08'0 0.0
2014-Apr-21 19:32N 54°02' E 008°08'0 0.0
2014-Apr-21 18:32N 54°02' E 008°08'0 0.0
2014-Apr-21 17:32N 54°02' E 008°08'0 0.0
2014-Apr-21 16:32N 54°02' E 008°08'0 0.0
2014-Apr-21 15:29N 54°02' E 008°08'0 0.0
2014-Apr-21 14:32N 54°02' E 008°09'0 0.0
2014-Apr-21 13:32N 54°02' E 008°08'0 0.0
2014-Apr-21 12:32N 54°02' E 008°09'0 0.1
2014-Apr-21 11:32N 54°02' E 008°08'0 0.0
2014-Apr-21 10:29N 54°02' E 008°08'0 0.0
2014-Apr-21 09:32N 54°02' E 008°08'0 0.0
2014-Apr-21 08:32N 54°02' E 008°08'0 0.0
2014-Apr-21 07:32N 54°02' E 008°08'0 0.0
2014-Apr-21 06:32N 54°02' E 008°08'0 0.0
2014-Apr-21 05:23N 54°02' E 008°08'0 0.0
2014-Apr-21 04:32N 54°02' E 008°08'0 0.0
2014-Apr-21 03:32N 54°02' E 008°08'0 0.1
2014-Apr-21 02:32N 54°02' E 008°08'0 0.0
2014-Apr-21 01:32N 54°02' E 008°08'0 0.0
2014-Apr-21 00:26N 54°02' E 008°08'0 0.0
2014-Apr-20 23:32N 54°02' E 008°08'0 0.0
2014-Apr-20 22:32N 54°02' E 008°08'0 0.0
2014-Apr-20 21:32N 54°02' E 008°08'0 0.0
2014-Apr-20 20:32N 54°02' E 008°08'0 0.0
2014-Apr-20 19:32N 54°02' E 008°08'0 0.0
2014-Apr-20 18:32N 54°02' E 008°08'0 0.0
2014-Apr-20 17:32N 54°02' E 008°08'0 0.0
2014-Apr-20 16:24N 54°02' E 008°08'0 0.0
2014-Apr-20 15:30N 54°02' E 008°08'0 0.0
2014-Apr-20 14:30N 54°02' E 008°08'0 0.0
2014-Apr-20 13:30N 54°02' E 008°08'0 0.0
2014-Apr-20 12:33N 54°02' E 008°09'0 0.0
2014-Apr-20 11:33N 54°02' E 008°08'0 0.1
2014-Apr-20 10:30N 54°02' E 008°08'0 0.0
2014-Apr-20 09:30N 54°02' E 008°08'0 0.0
2014-Apr-20 08:33N 54°02' E 008°08'0 0.0
2014-Apr-20 07:33N 54°02' E 008°08'0 0.0
2014-Apr-20 06:33N 54°02' E 008°08'0 0.0
2014-Apr-20 05:33N 54°02' E 008°08'0 0.0
2014-Apr-20 04:30N 54°02' E 008°08'0 0.0
2014-Apr-20 03:30N 54°02' E 008°08'0 0.0
2014-Apr-20 02:33N 54°02' E 008°08'0 0.0
2014-Apr-20 01:33N 54°02' E 008°09'0 0.0
2014-Apr-20 00:30N 54°02' E 008°09'0 0.0
2014-Apr-19 23:33N 54°02' E 008°09'0 0.0
2014-Apr-19 22:31N 54°02' E 008°09'3 3.0
2014-Apr-19 21:33N 54°03' E 008°04'1212.1
2014-Apr-19 20:33N 54°07' E 007°44'1211.6
2014-Apr-19 19:33N 54°12' E 007°26'1110.7
2014-Apr-19 18:33N 54°19' E 007°13'9 9.3
2014-Apr-19 17:33N 54°25' E 007°01'2 1.6
2014-Apr-19 16:33N 54°24' E 007°03'5 5.1
2014-Apr-19 15:34N 54°26' E 007°11'10 9.5
2014-Apr-19 14:33N 54°35' E 007°06'1010.1
2014-Apr-19 13:33N 54°44' E 006°58'1010.4
2014-Apr-19 12:34N 54°53' E 006°50'12 9.6
2014-Apr-19 11:18N 55°05' E 006°44'10 9.9
2014-Apr-19 10:16N 54°58' E 006°30'15 7.1
2014-Apr-19 08:11N 54°44' E 006°25'7 9.6
2014-Apr-19 07:28N 54°39' E 006°33'9 9.9
2014-Apr-19 06:33N 54°32' E 006°44'1010.5
2014-Apr-19 05:33N 54°25' E 006°57'9 9.5
2014-Apr-19 04:33N 54°19' E 007°10'10 9.5
2014-Apr-19 03:33N 54°28' E 007°11'9 9.3
2014-Apr-19 02:33N 54°37' E 007°07'9 9.5
2014-Apr-19 01:34N 54°46' E 007°00'1010.0
2014-Apr-19 00:33N 54°55' E 006°52'38 4.8
2014-Apr-18 16:33N 54°24' E 006°12'9 8.4
2014-Apr-18 15:28N 54°21' E 006°27'8 8.5
2014-Apr-18 14:33N 54°19' E 006°40'8 8.3
2014-Apr-18 13:33N 54°16' E 006°53'2 1.7
2014-Apr-18 12:33N 54°17' E 006°55'1110.6
2014-Apr-18 11:33N 54°26' E 006°45'25 3.6
2014-Apr-18 04:33N 54°51' E 006°52'7 7.0
2014-Apr-18 03:33N 54°50' E 007°04'9 8.5
2014-Apr-18 02:33N 54°53' E 007°18'9 9.0
2014-Apr-18 01:33N 54°58' E 007°31'8 8.0
2014-Apr-18 00:33N 54°52' E 007°21'1110.8
2014-Apr-17 23:32N 54°43' E 007°10'1110.9
2014-Apr-17 22:34N 54°35' E 006°58'1111.1
2014-Apr-17 21:33N 54°26' E 006°47'1110.9
2014-Apr-17 20:33N 54°17' E 006°36'10 9.6
2014-Apr-17 19:33N 54°25' E 006°45'10 9.9
2014-Apr-17 18:34N 54°33' E 006°55'10 9.8
2014-Apr-17 17:33N 54°41' E 007°05'10 9.4
2014-Apr-17 16:29N 54°49' E 007°15'8 9.0
2014-Apr-17 15:34N 54°56' E 007°24'7 6.7
2014-Apr-17 14:33N 55°00' E 007°33'1211.8
2014-Apr-17 13:34N 54°51' E 007°20'1211.8
2014-Apr-17 12:33N 54°41' E 007°08'1111.6
2014-Apr-17 11:34N 54°33' E 006°55'1211.7
2014-Apr-17 10:33N 54°36' E 006°36'1211.9
2014-Apr-17 09:33N 54°40' E 006°16'1211.9
2014-Apr-17 08:33N 54°43' E 005°56'1111.3
2014-Apr-17 07:33N 54°48' E 005°38'30 9.7
2014-Apr-17 04:27N 55°10' E 006°14'7 7.2
2014-Apr-17 03:28N 55°13' E 006°25'1111.8
2014-Apr-17 02:33N 55°06' E 006°11'1211.7
2014-Apr-17 01:33N 54°58' E 005°55'1311.7
2014-Apr-17 00:28N 54°50' E 005°38'12412.1
2014-Apr-16 14:10N 53°28' E 002°59'1012.6
2014-Apr-16 13:21N 53°18' E 002°52'5210.5
2014-Apr-16 08:26N 52°31' E 003°26'1112.3
2014-Apr-16 07:33N 52°32' E 003°44'1212.4
2014-Apr-16 06:33N 52°32' E 004°04'1312.8
2014-Apr-16 05:33N 52°29' E 004°25'7 7.1
2014-Apr-16 04:34N 52°28' E 004°37'5 5.4
2014-Apr-16 03:34N 52°26' E 004°45'4 3.9
2014-Apr-16 02:33N 52°25' E 004°51'0 0.0
2014-Apr-16 01:33N 52°25' E 004°51'0 0.0
2014-Apr-16 00:33N 52°25' E 004°51'0 0.0
2014-Apr-15 23:33N 52°25' E 004°51'0 0.0
2014-Apr-15 22:33N 52°25' E 004°51'0 0.0
2014-Apr-15 21:33N 52°25' E 004°51'0 0.0
2014-Apr-15 20:33N 52°25' E 004°51'0 0.0
2014-Apr-15 19:30N 52°25' E 004°51'0 0.0
2014-Apr-15 18:33N 52°25' E 004°51'0 0.0
2014-Apr-15 17:33N 52°25' E 004°51'0 0.0
2014-Apr-15 16:33N 52°25' E 004°51'0 0.0
2014-Apr-15 15:33N 52°25' E 004°51'0 0.0
2014-Apr-15 14:33N 52°25' E 004°51'0 0.0
2014-Apr-15 12:34N 52°25' E 004°51'0 0.0
2014-Apr-15 11:34N 52°25' E 004°51'0 0.0
2014-Apr-15 10:33N 52°25' E 004°51'0 0.0
2014-Apr-15 09:33N 52°25' E 004°51'0 0.0
2014-Apr-15 08:33N 52°25' E 004°51'0 0.0
2014-Apr-15 07:33N 52°25' E 004°51'0 0.0
2014-Apr-15 06:33N 52°25' E 004°51'0 0.0
2014-Apr-15 05:33N 52°25' E 004°51'0 0.0
2014-Apr-15 03:33N 52°25' E 004°51'0 0.0
2014-Apr-15 02:33N 52°25' E 004°51'0 0.0
2014-Apr-15 01:33N 52°25' E 004°51'0 0.0
2014-Apr-15 00:33N 52°25' E 004°51'0 0.0
2014-Apr-14 23:33N 52°25' E 004°51'0 0.0
2014-Apr-14 22:33N 52°25' E 004°51'0 0.0
2014-Apr-14 21:33N 52°25' E 004°51'0 0.0
2014-Apr-14 20:30N 52°25' E 004°51'0 0.0
2014-Apr-14 19:30N 52°25' E 004°51'0 0.0
2014-Apr-14 18:33N 52°25' E 004°51'0 0.0
2014-Apr-14 17:33N 52°25' E 004°51'0 0.0
2014-Apr-14 16:30N 52°25' E 004°51'0 0.0
2014-Apr-14 15:30N 52°25' E 004°51'0 0.0
2014-Apr-14 14:33N 52°25' E 004°51'0 0.0
2014-Apr-14 13:33N 52°25' E 004°51'0 0.0
2014-Apr-14 11:33N 52°25' E 004°51'0 0.0
2014-Apr-14 10:33N 52°25' E 004°51'0 0.0
2014-Apr-14 09:33N 52°25' E 004°51'  

Dump ship's entire track history

sailing weather and tide predictions

Tour Pomerol — 9V9183 — position and weather